Time;durP1;ratioP1;P1;durP2;ratioP2;P2;SDS_P1;SDS_P2;PMS_P1;PMS_P2;Temp;Humidity;BMP_temperature;BMP_pressure;BME280_temperature;BME280_humidity;BME280_pressure;Samples;Min_cycle;Max_cycle;Signal;HPM_P1;HPM_P2
2022/04/05 00:00:22;;;;;;;;;;;15.00;77.00;;;;;;5191321;28;19925;-34
2022/04/05 00:03:08;;;;;;;;;;;15.00;77.10;;;;;;5191554;28;19947;-34
2022/04/05 00:05:39;;;;;;;;;;;15.00;77.20;;;;;;5191196;28;19921;-36
2022/04/05 00:08:09;;;;;;;;;;;15.00;77.30;;;;;;5191008;28;19963;-34
2022/04/05 00:10:40;;;;;;;;;;;15.00;77.40;;;;;;5190755;28;19922;-34
2022/04/05 00:13:11;;;;;;;;;;;15.00;77.50;;;;;;5190923;28;19928;-34
2022/04/05 00:15:42;;;;;;;;;;;15.00;77.60;;;;;;5191063;28;19928;-34
2022/04/05 00:18:13;;;;;;;;;;;15.00;77.60;;;;;;5190889;28;19928;-35
2022/04/05 00:20:44;;;;;;;;;;;15.00;77.70;;;;;;5190847;28;20393;-35
2022/04/05 00:23:15;;;;;;;;;;;15.00;77.70;;;;;;5190726;28;19925;-34
2022/04/05 00:25:46;;;;;;;;;;;15.00;77.90;;;;;;5190446;28;19921;-34
2022/04/05 00:28:17;;;;;;;;;;;14.90;78.00;;;;;;5190466;28;19929;-34
2022/04/05 00:30:48;;;;;;;;;;;15.00;78.10;;;;;;5190757;28;19925;-36
2022/04/05 00:33:18;;;;;;;;;;;15.00;78.10;;;;;;5190737;28;19921;-34
2022/04/05 00:35:49;;;;;;;;;;;15.00;78.10;;;;;;5190456;28;19929;-34
2022/04/05 00:38:20;;;;;;;;;;;15.00;78.30;;;;;;5190506;28;19929;-34
2022/04/05 00:40:51;;;;;;;;;;;15.00;78.20;;;;;;5190552;28;19921;-34
2022/04/05 00:43:22;;;;;;;;;;;15.00;78.40;;;;;;5190612;28;19928;-34
2022/04/05 00:45:55;;;;;;;;;;;15.00;78.20;;;;;;5190274;28;19922;-35
2022/04/05 00:48:29;;;;;;;;;;;15.00;78.40;;;;;;5190182;28;19921;-34
2022/04/05 00:51:01;;;;;;;;;;;15.00;78.30;;;;;;5172886;28;20019;-35
2022/04/05 00:53:31;;;;;;;;;;;15.10;78.40;;;;;;5190309;28;20012;-34
2022/04/05 00:56:02;;;;;;;;;;;15.00;78.50;;;;;;5189241;28;19983;-34
2022/04/05 00:58:33;;;;;;;;;;;15.10;79.10;;;;;;5190070;28;19953;-34
2022/04/05 01:01:04;;;;;;;;;;;15.00;78.70;;;;;;5189858;28;19928;-35
2022/04/05 01:03:36;;;;;;;;;;;15.00;78.70;;;;;;5172335;28;19933;-35
2022/04/05 01:06:07;;;;;;;;;;;15.00;78.90;;;;;;5189990;28;19991;-35
2022/04/05 01:08:38;;;;;;;;;;;15.00;79.00;;;;;;5172566;28;19922;-35
2022/04/05 01:11:09;;;;;;;;;;;15.00;79.00;;;;;;5172453;28;19929;-35
2022/04/05 01:13:40;;;;;;;;;;;15.00;79.10;;;;;;5189645;28;19949;-35
2022/04/05 01:16:11;;;;;;;;;;;15.00;79.20;;;;;;5189915;28;20389;-34
2022/04/05 01:18:42;;;;;;;;;;;14.90;79.20;;;;;;5189736;28;19956;-34
2022/04/05 01:21:14;;;;;;;;;;;15.00;79.40;;;;;;5172276;28;19928;-35
2022/04/05 01:24:05;;;;;;;;;;;15.00;79.50;;;;;;5189330;28;19925;-36
2022/04/05 01:26:40;;;;;;;;;;;15.00;79.50;;;;;;5189328;28;19960;-36
2022/04/05 01:29:11;;;;;;;;;;;15.00;79.60;;;;;;5189522;28;19921;-34
2022/04/05 01:31:44;;;;;;;;;;;15.00;79.60;;;;;;5172213;28;19971;-34
2022/04/05 01:34:16;;;;;;;;;;;15.00;79.70;;;;;;5189272;28;19925;-34
2022/04/05 01:36:50;;;;;;;;;;;15.00;79.80;;;;;;5189068;28;20421;-35
2022/04/05 01:39:21;;;;;;;;;;;15.00;79.60;;;;;;5189721;28;19922;-34
2022/04/05 01:41:56;;;;;;;;;;;15.00;79.70;;;;;;5189205;28;19960;-34
2022/04/05 01:44:27;;;;;;;;;;;15.00;79.70;;;;;;5189299;28;19928;-34
2022/04/05 01:47:04;;;;;;;;;;;15.00;79.70;;;;;;5155718;28;19928;-36
2022/04/05 01:49:38;;;;;;;;;;;15.00;80.00;;;;;;5189208;28;19925;-34
2022/04/05 01:52:10;;;;;;;;;;;15.00;79.90;;;;;;5188956;28;19948;-34
2022/04/05 01:54:41;;;;;;;;;;;15.00;79.90;;;;;;5189108;28;20329;-35
2022/04/05 01:57:12;;;;;;;;;;;15.00;79.90;;;;;;5188976;28;20372;-34
2022/04/05 01:59:43;;;;;;;;;;;15.00;79.90;;;;;;5189046;28;19928;-34
2022/04/05 02:02:14;;;;;;;;;;;15.00;80.00;;;;;;5188969;28;20299;-35
2022/04/05 02:04:45;;;;;;;;;;;15.00;80.00;;;;;;5188925;28;19928;-34
2022/04/05 02:07:17;;;;;;;;;;;15.00;79.90;;;;;;5188629;28;19925;-35
2022/04/05 02:09:49;;;;;;;;;;;15.00;79.80;;;;;;5188703;28;19925;-34
2022/04/05 02:12:20;;;;;;;;;;;15.00;79.70;;;;;;5171168;28;19922;-34
2022/04/05 02:14:51;;;;;;;;;;;15.10;79.70;;;;;;5188771;28;19975;-34
2022/04/05 02:17:22;;;;;;;;;;;15.00;80.30;;;;;;5188122;28;20417;-34
2022/04/05 02:19:54;;;;;;;;;;;15.00;79.80;;;;;;5188471;28;19925;-34
2022/04/05 02:22:25;;;;;;;;;;;15.00;80.00;;;;;;5188650;28;19952;-34
2022/04/05 02:24:57;;;;;;;;;;;15.00;79.70;;;;;;5188881;28;20324;-35
2022/04/05 02:27:28;;;;;;;;;;;15.00;79.80;;;;;;5188459;28;19922;-36
2022/04/05 02:29:59;;;;;;;;;;;15.00;79.80;;;;;;5188287;28;19927;-34
2022/04/05 02:32:30;;;;;;;;;;;15.00;79.90;;;;;;5188382;28;19928;-34
2022/04/05 02:35:00;;;;;;;;;;;15.00;80.00;;;;;;5188589;28;19926;-36
2022/04/05 02:37:31;;;;;;;;;;;15.00;80.10;;;;;;5187622;28;19928;-34
2022/04/05 02:40:03;;;;;;;;;;;14.90;80.00;;;;;;5188388;28;20351;-35
2022/04/05 02:42:34;;;;;;;;;;;14.90;80.10;;;;;;5170823;28;19944;-34
2022/04/05 02:45:06;;;;;;;;;;;15.00;80.10;;;;;;5188118;28;19921;-34
2022/04/05 02:47:37;;;;;;;;;;;15.00;80.00;;;;;;5188305;28;19928;-36
2022/04/05 02:50:08;;;;;;;;;;;15.00;79.80;;;;;;5188073;28;19921;-34
2022/04/05 02:52:39;;;;;;;;;;;15.10;79.80;;;;;;5188024;28;20374;-34
2022/04/05 02:55:10;;;;;;;;;;;15.10;79.70;;;;;;5187810;28;20016;-34
2022/04/05 02:57:41;;;;;;;;;;;15.10;79.60;;;;;;5187789;28;19921;-34
2022/04/05 03:00:13;;;;;;;;;;;15.10;79.60;;;;;;5187801;28;19921;-35
2022/04/05 03:02:44;;;;;;;;;;;15.10;79.60;;;;;;5187644;28;19967;-34
2022/04/05 03:05:17;;;;;;;;;;;15.00;79.50;;;;;;5187706;28;19929;-34
2022/04/05 03:07:48;;;;;;;;;;;15.10;79.70;;;;;;5187525;28;20390;-35
2022/04/05 03:10:19;;;;;;;;;;;15.10;79.70;;;;;;5187744;28;19921;-34
2022/04/05 03:12:50;;;;;;;;;;;15.10;79.70;;;;;;5187729;28;19972;-34
2022/04/05 03:15:21;;;;;;;;;;;15.10;79.70;;;;;;5187684;28;19988;-34
2022/04/05 03:17:55;;;;;;;;;;;15.00;79.80;;;;;;5187689;28;20040;-34
2022/04/05 03:20:25;;;;;;;;;;;15.00;80.00;;;;;;5186800;28;20013;-34
2022/04/05 03:22:57;;;;;;;;;;;15.00;80.00;;;;;;5187479;28;19921;-34
2022/04/05 03:25:28;;;;;;;;;;;15.00;79.90;;;;;;5187537;28;19921;-35
2022/04/05 03:27:59;;;;;;;;;;;15.00;79.90;;;;;;5186204;28;20386;-34
2022/04/05 03:30:30;;;;;;;;;;;15.00;79.90;;;;;;5187518;28;20437;-34
2022/04/05 03:33:01;;;;;;;;;;;15.00;79.70;;;;;;5187327;28;19944;-34
2022/04/05 03:35:32;;;;;;;;;;;15.00;79.50;;;;;;5187327;28;19922;-36
2022/04/05 03:38:03;;;;;;;;;;;15.00;79.20;;;;;;5186898;28;20405;-35
2022/04/05 03:40:34;;;;;;;;;;;15.00;79.20;;;;;;5170132;28;19968;-34
2022/04/05 03:43:07;;;;;;;;;;;15.00;79.10;;;;;;5187404;28;19967;-36
2022/04/05 03:45:38;;;;;;;;;;;15.00;78.90;;;;;;5187224;28;19925;-34
2022/04/05 03:48:09;;;;;;;;;;;15.00;78.80;;;;;;5187283;28;19921;-34
2022/04/05 03:50:40;;;;;;;;;;;15.00;78.60;;;;;;5186617;28;19928;-36
2022/04/05 03:53:11;;;;;;;;;;;15.00;78.70;;;;;;5187196;28;19921;-34
2022/04/05 03:55:42;;;;;;;;;;;15.00;78.50;;;;;;5186776;28;19929;-34
2022/04/05 03:58:13;;;;;;;;;;;15.10;78.30;;;;;;5187036;28;19921;-34
2022/04/05 04:00:44;;;;;;;;;;;15.20;78.00;;;;;;5187096;28;19921;-35
2022/04/05 04:03:15;;;;;;;;;;;15.30;79.10;;;;;;5187630;28;20351;-35
2022/04/05 04:05:46;;;;;;;;;;;15.40;77.40;;;;;;5186738;28;19928;-35
2022/04/05 04:08:17;;;;;;;;;;;15.40;77.20;;;;;;5169581;28;19929;-35
2022/04/05 04:10:48;;;;;;;;;;;15.40;76.90;;;;;;5187405;28;20274;-34
2022/04/05 04:13:19;;;;;;;;;;;15.40;76.60;;;;;;5187264;28;20049;-35
2022/04/05 04:15:50;;;;;;;;;;;15.30;76.20;;;;;;5186720;28;19960;-34
2022/04/05 04:18:21;;;;;;;;;;;15.20;76.10;;;;;;5186736;28;19921;-34
2022/04/05 04:20:52;;;;;;;;;;;15.20;75.80;;;;;;5186865;28;20375;-34
2022/04/05 04:23:23;;;;;;;;;;;15.30;77.70;;;;;;5186587;28;20397;-35
2022/04/05 04:25:54;;;;;;;;;;;15.40;74.80;;;;;;5186354;28;20048;-34
2022/04/05 04:28:25;;;;;;;;;;;15.50;74.70;;;;;;5186779;28;19926;-34
2022/04/05 04:30:56;;;;;;;;;;;15.30;74.20;;;;;;5188547;28;19929;-34
2022/04/05 04:33:27;;;;;;;;;;;13.90;77.60;;;;;;5190414;28;19928;-35
2022/04/05 04:35:58;;;;;;;;;;;13.20;79.20;;;;;;5190828;28;19925;-34
2022/04/05 04:38:29;;;;;;;;;;;12.80;79.60;;;;;;5190526;28;19970;-35
2022/04/05 04:41:00;;;;;;;;;;;12.70;79.80;;;;;;5172023;28;19922;-34
2022/04/05 04:43:31;;;;;;;;;;;12.50;79.70;;;;;;5189891;28;19921;-34
2022/04/05 04:46:01;;;;;;;;;;;12.50;80.00;;;;;;5172913;28;19976;-34
2022/04/05 04:48:32;;;;;;;;;;;12.40;79.90;;;;;;5190128;28;19921;-34
2022/04/05 04:51:03;;;;;;;;;;;12.40;80.00;;;;;;5190385;28;19928;-34
2022/04/05 04:53:34;;;;;;;;;;;12.30;80.50;;;;;;5190206;28;19975;-34
2022/04/05 04:56:05;;;;;;;;;;;12.30;80.40;;;;;;5190303;28;20382;-36
2022/04/05 04:58:37;;;;;;;;;;;12.30;80.20;;;;;;5190014;28;19925;-36
2022/04/05 05:01:07;;;;;;;;;;;12.30;80.00;;;;;;5173206;28;19992;-36
2022/04/05 05:03:38;;;;;;;;;;;12.30;79.80;;;;;;5189139;28;20256;-36
2022/04/05 05:06:10;;;;;;;;;;;12.30;79.60;;;;;;5190150;28;19937;-35
2022/04/05 05:08:41;;;;;;;;;;;12.30;79.60;;;;;;5172617;28;19961;-37
2022/04/05 05:11:12;;;;;;;;;;;12.30;79.80;;;;;;5189667;28;20011;-39
2022/04/05 05:13:43;;;;;;;;;;;12.30;80.20;;;;;;5190008;28;19922;-36
2022/04/05 05:16:13;;;;;;;;;;;12.30;79.90;;;;;;5189912;28;19928;-36
2022/04/05 05:18:44;;;;;;;;;;;12.30;79.60;;;;;;5183601;28;19944;-38
2022/04/05 05:21:17;;;;;;;;;;;12.40;80.00;;;;;;5183294;28;20389;-37
2022/04/05 05:23:48;;;;;;;;;;;12.80;79.50;;;;;;5187767;28;19921;-36
2022/04/05 05:26:19;;;;;;;;;;;13.40;77.90;;;;;;5153741;28;20371;-35
2022/04/05 05:28:50;;;;;;;;;;;13.80;76.70;;;;;;5187321;28;19944;-36
2022/04/05 05:31:21;;;;;;;;;;;14.10;75.90;;;;;;5187138;28;19955;-38
2022/04/05 05:33:52;;;;;;;;;;;14.40;75.20;;;;;;5187287;28;19928;-37
2022/04/05 05:36:22;;;;;;;;;;;14.50;74.70;;;;;;5187238;28;19921;-36
2022/04/05 05:38:54;;;;;;;;;;;14.60;74.30;;;;;;5187265;28;19922;-38
2022/04/05 05:41:24;;;;;;;;;;;14.70;74.00;;;;;;5187010;28;20068;-36
2022/04/05 05:43:55;;;;;;;;;;;14.80;73.90;;;;;;5186718;28;19929;-37
2022/04/05 05:46:26;;;;;;;;;;;14.90;73.70;;;;;;5186950;28;20101;-36
2022/04/05 05:48:57;;;;;;;;;;;14.90;73.60;;;;;;5187262;28;19932;-36
2022/04/05 05:51:28;;;;;;;;;;;14.90;73.40;;;;;;5169539;28;19925;-37
2022/04/05 05:53:59;;;;;;;;;;;14.90;73.30;;;;;;5186987;28;20390;-37
2022/04/05 05:56:33;;;;;;;;;;;14.90;73.30;;;;;;5186672;28;19983;-37
2022/04/05 05:59:04;;;;;;;;;;;15.00;73.40;;;;;;5186675;28;19953;-37
2022/04/05 06:01:35;;;;;;;;;;;15.00;73.30;;;;;;5186877;28;19967;-36
2022/04/05 06:04:06;;;;;;;;;;;15.00;73.30;;;;;;5186758;28;19967;-37
2022/04/05 06:06:37;;;;;;;;;;;15.00;73.10;;;;;;5186563;28;19948;-37
2022/04/05 06:09:08;;;;;;;;;;;15.00;73.30;;;;;;5186681;28;20327;-37
2022/04/05 06:11:39;;;;;;;;;;;15.00;73.30;;;;;;5186816;28;19972;-36
2022/04/05 06:14:10;;;;;;;;;;;15.00;73.10;;;;;;5186535;28;19925;-37
2022/04/05 06:16:41;;;;;;;;;;;15.00;72.80;;;;;;5186675;28;20015;-37
2022/04/05 06:19:13;;;;;;;;;;;15.00;72.40;;;;;;5186301;28;19925;-39
2022/04/05 06:21:44;;;;;;;;;;;15.00;72.10;;;;;;5186206;28;20024;-36
2022/04/05 06:24:15;;;;;;;;;;;15.00;72.10;;;;;;5186357;28;19955;-36
2022/04/05 06:26:46;;;;;;;;;;;15.00;72.10;;;;;;5186381;28;19921;-36
2022/04/05 06:29:17;;;;;;;;;;;15.00;72.00;;;;;;5168630;28;19928;-37
2022/04/05 06:31:48;;;;;;;;;;;15.00;72.80;;;;;;5186738;28;20036;-36
2022/04/05 06:34:19;;;;;;;;;;;15.00;72.00;;;;;;5188065;28;19921;-39
2022/04/05 06:36:50;;;;;;;;;;;15.00;71.90;;;;;;5187744;28;19928;-38
2022/04/05 06:39:21;;;;;;;;;;;15.00;72.00;;;;;;5170536;28;19922;-39
2022/04/05 06:41:53;;;;;;;;;;;15.00;71.70;;;;;;5188074;28;19968;-36
2022/04/05 06:44:26;;;;;;;;;;;15.00;71.90;;;;;;5188273;28;20375;-37
2022/04/05 06:47:00;;;;;;;;;;;14.90;71.90;;;;;;5188863;28;19922;-37
2022/04/05 06:49:32;;;;;;;;;;;14.90;71.70;;;;;;5187875;28;20325;-38
2022/04/05 06:52:03;;;;;;;;;;;14.90;71.60;;;;;;5188243;28;19921;-38
2022/04/05 06:54:34;;;;;;;;;;;14.90;71.70;;;;;;5186395;28;19922;-40
2022/04/05 06:57:05;;;;;;;;;;;14.90;71.60;;;;;;5187440;28;19971;-39
2022/04/05 06:59:36;;;;;;;;;;;14.90;71.20;;;;;;5153599;28;19964;-37
2022/04/05 07:02:07;;;;;;;;;;;14.90;70.90;;;;;;5187619;28;19953;-38
2022/04/05 07:04:38;;;;;;;;;;;14.90;71.20;;;;;;5186859;28;19922;-37
2022/04/05 07:07:09;;;;;;;;;;;14.90;72.30;;;;;;5187693;28;19921;-37
2022/04/05 07:09:40;;;;;;;;;;;14.90;70.90;;;;;;5186427;28;19921;-38
2022/04/05 07:12:11;;;;;;;;;;;14.90;70.70;;;;;;5170336;28;19967;-38
2022/04/05 07:14:42;;;;;;;;;;;14.90;70.00;;;;;;5170545;28;19921;-38
2022/04/05 07:17:13;;;;;;;;;;;15.00;69.90;;;;;;5187652;28;19929;-37
2022/04/05 07:19:44;;;;;;;;;;;15.00;69.80;;;;;;5145024;28;19921;-38
2022/04/05 07:22:15;;;;;;;;;;;15.00;69.90;;;;;;5144907;28;20304;-36
2022/04/05 07:24:52;;;;;;;;;;;14.90;70.30;;;;;;5145479;28;19921;-36
2022/04/05 07:27:23;;;;;;;;;;;14.80;70.10;;;;;;5145114;28;20252;-37
2022/04/05 07:29:54;;;;;;;;;;;14.80;69.60;;;;;;5141905;28;19929;-36
2022/04/05 07:32:26;;;;;;;;;;;14.80;69.40;;;;;;5125879;28;19926;-36
2022/04/05 07:34:57;;;;;;;;;;;14.80;70.20;;;;;;5123601;28;19921;-37
2022/04/05 07:37:30;;;;;;;;;;;14.80;69.60;;;;;;5122761;28;20267;-37
2022/04/05 07:40:03;;;;;;;;;;;15.00;69.40;;;;;;5175014;28;19952;-36
2022/04/05 07:42:34;;;;;;;;;;;14.90;69.00;;;;;;5179065;28;19921;-41
2022/04/05 07:45:06;;;;;;;;;;;14.90;69.10;;;;;;5179221;28;19932;-40
2022/04/05 07:47:37;;;;;;;;;;;14.90;69.40;;;;;;5176248;28;19948;-37
2022/04/05 07:50:08;;;;;;;;;;;14.90;69.00;;;;;;5180080;28;19956;-37
2022/04/05 07:52:39;;;;;;;;;;;14.90;69.20;;;;;;5180170;28;19921;-37
2022/04/05 07:55:11;;;;;;;;;;;14.90;69.50;;;;;;5178715;28;20461;-40
2022/04/05 07:57:42;;;;;;;;;;;14.90;69.60;;;;;;5173971;28;19929;-36
2022/04/05 08:00:13;;;;;;;;;;;14.90;69.50;;;;;;5180742;28;20329;-38
2022/04/05 08:02:44;;;;;;;;;;;14.70;69.50;;;;;;5176111;28;20240;-38
2022/04/05 08:05:16;;;;;;;;;;;14.80;69.10;;;;;;5176719;28;19937;-38
2022/04/05 08:07:47;;;;;;;;;;;14.80;68.60;;;;;;5181271;28;19975;-36
2022/04/05 08:10:18;;;;;;;;;;;14.80;68.10;;;;;;5184507;28;19925;-38
2022/04/05 08:12:49;;;;;;;;;;;14.70;68.20;;;;;;5180229;28;20389;-39
2022/04/05 08:15:21;;;;;;;;;;;14.70;68.30;;;;;;5186798;28;19921;-37
2022/04/05 08:17:52;;;;;;;;;;;14.70;68.20;;;;;;5181313;28;19921;-39
2022/04/05 08:20:23;;;;;;;;;;;14.70;68.00;;;;;;5184422;28;19922;-38
2022/04/05 08:22:54;;;;;;;;;;;14.70;68.10;;;;;;5178905;28;19929;-39
2022/04/05 08:25:25;;;;;;;;;;;14.70;68.20;;;;;;5186337;28;20047;-40
2022/04/05 08:27:57;;;;;;;;;;;14.70;68.60;;;;;;5181151;28;20383;-40
2022/04/05 08:30:31;;;;;;;;;;;14.70;67.90;;;;;;5186354;28;20482;-39
2022/04/05 08:33:01;;;;;;;;;;;14.70;67.80;;;;;;5175565;28;19921;-39
2022/04/05 08:35:32;;;;;;;;;;;14.70;67.70;;;;;;5179664;28;19925;-40
2022/04/05 08:38:03;;;;;;;;;;;14.70;67.80;;;;;;5179523;28;19926;-37
2022/04/05 08:40:34;;;;;;;;;;;14.70;67.70;;;;;;5183412;28;20052;-38
2022/04/05 08:43:05;;;;;;;;;;;14.60;67.70;;;;;;5172766;28;19944;-38
2022/04/05 08:45:36;;;;;;;;;;;14.70;67.60;;;;;;5189861;28;19983;-39
2022/04/05 08:48:17;;;;;;;;;;;14.80;67.30;;;;;;5190294;28;19999;-37
2022/04/05 08:50:48;;;;;;;;;;;14.90;67.30;;;;;;5190568;28;19922;-38
2022/04/05 08:53:22;;;;;;;;;;;14.90;67.40;;;;;;5190082;28;19944;-39
2022/04/05 08:55:53;;;;;;;;;;;14.90;67.70;;;;;;5189693;28;20317;-40
2022/04/05 08:58:24;;;;;;;;;;;14.90;67.70;;;;;;5172637;28;19964;-37
2022/04/05 09:00:55;;;;;;;;;;;14.90;67.80;;;;;;5188503;28;20371;-38
2022/04/05 09:03:28;;;;;;;;;;;14.90;67.60;;;;;;5190190;28;19948;-38
2022/04/05 09:06:23;;;;;;;;;;;14.90;67.40;;;;;;5189566;28;20278;-40
2022/04/05 09:09:02;;;;;;;;;;;14.90;67.10;;;;;;5147448;28;19929;-39
2022/04/05 09:11:34;;;;;;;;;;;14.90;67.00;;;;;;5131553;28;20380;-39
2022/04/05 09:14:05;;;;;;;;;;;14.90;67.10;;;;;;5147595;28;20057;-38
2022/04/05 09:16:36;;;;;;;;;;;14.90;67.30;;;;;;5147415;28;19926;-39
2022/04/05 09:19:09;;;;;;;;;;;14.80;67.00;;;;;;5146834;28;19922;-37
2022/04/05 09:21:50;;;;;;;;;;;14.90;66.60;;;;;;5147353;28;19953;-38
2022/04/05 09:24:22;;;;;;;;;;;14.90;66.80;;;;;;5147363;28;20312;-36
2022/04/05 09:26:53;;;;;;;;;;;14.90;66.50;;;;;;5099334;28;19976;-37
2022/04/05 09:29:26;;;;;;;;;;;14.90;66.80;;;;;;5147141;28;19926;-37
2022/04/05 09:31:57;;;;;;;;;;;14.90;66.70;;;;;;5130971;28;19929;-40
2022/04/05 09:34:27;;;;;;;;;;;14.90;66.50;;;;;;5147173;28;19922;-38
2022/04/05 09:36:59;;;;;;;;;;;14.90;66.20;;;;;;5147060;28;19926;-37
2022/04/05 09:39:29;;;;;;;;;;;14.90;66.30;;;;;;5146817;28;19964;-39
2022/04/05 09:42:05;;;;;;;;;;;15.00;66.30;;;;;;5189274;28;19921;-38
2022/04/05 09:44:40;;;;;;;;;;;14.90;66.40;;;;;;5189982;28;20012;-38
2022/04/05 09:47:14;;;;;;;;;;;15.00;66.30;;;;;;5189466;28;20013;-36
2022/04/05 09:49:45;;;;;;;;;;;14.90;66.20;;;;;;5172085;28;20083;-37
2022/04/05 09:52:30;;;;;;;;;;;14.90;66.20;;;;;;5189160;28;19926;-37
2022/04/05 09:55:14;;;;;;;;;;;14.90;66.10;;;;;;5172169;28;19921;-36
2022/04/05 09:57:46;;;;;;;;;;;14.90;66.00;;;;;;5171701;28;19925;-38
2022/04/05 10:00:18;;;;;;;;;;;14.90;66.20;;;;;;5188738;28;19922;-37
2022/04/05 10:03:02;;;;;;;;;;;15.00;66.10;;;;;;5188648;28;19921;-38
2022/04/05 10:05:33;;;;;;;;;;;15.00;66.20;;;;;;5171505;28;19975;-37
2022/04/05 10:08:05;;;;;;;;;;;15.00;66.50;;;;;;5188752;28;19928;-37
2022/04/05 10:10:35;;;;;;;;;;;15.00;66.80;;;;;;5189093;28;20376;-38
2022/04/05 10:13:06;;;;;;;;;;;14.90;67.20;;;;;;5188263;28;19921;-37
2022/04/05 10:15:37;;;;;;;;;;;14.90;67.40;;;;;;5188929;28;19921;-37
2022/04/05 10:18:08;;;;;;;;;;;14.90;67.10;;;;;;5189210;28;19923;-36
2022/04/05 10:20:41;;;;;;;;;;;14.90;66.60;;;;;;5171382;28;19928;-37
2022/04/05 10:23:12;;;;;;;;;;;14.80;67.10;;;;;;5188486;28;19984;-37
2022/04/05 10:25:43;;;;;;;;;;;14.80;67.40;;;;;;5171282;28;19925;-36
2022/04/05 10:28:15;;;;;;;;;;;14.70;67.30;;;;;;5188049;28;20028;-38
2022/04/05 10:31:19;;;;;;;;;;;14.90;67.30;;;;;;5170772;28;20003;-36
2022/04/05 10:33:52;;;;;;;;;;;14.90;67.30;;;;;;5105939;29;20333;-37
2022/04/05 10:36:23;;;;;;;;;;;14.90;67.30;;;;;;5105645;29;19923;-36
2022/04/05 10:39:13;;;;;;;;;;;14.90;67.80;;;;;;5105455;29;19927;-37
2022/04/05 10:41:44;;;;;;;;;;;14.90;68.10;;;;;;5090036;29;20296;-38
2022/04/05 10:44:15;;;;;;;;;;;14.90;68.50;;;;;;5105687;29;20037;-36
2022/04/05 10:46:57;;;;;;;;;;;14.90;68.50;;;;;;5105564;29;20329;-37
2022/04/05 10:49:35;;;;;;;;;;;14.80;68.40;;;;;;5105720;29;19962;-36
2022/04/05 10:52:07;;;;;;;;;;;14.80;68.30;;;;;;5105747;29;19922;-37
2022/04/05 10:54:40;;;;;;;;;;;14.80;68.00;;;;;;5105678;29;19926;-37
2022/04/05 10:57:27;;;;;;;;;;;14.90;67.80;;;;;;5105456;29;19930;-36
2022/04/05 11:00:05;;;;;;;;;;;14.90;67.50;;;;;;5105418;29;20372;-36
2022/04/05 11:02:44;;;;;;;;;;;14.90;67.50;;;;;;5089933;29;20437;-36
2022/04/05 11:05:18;;;;;;;;;;;14.90;68.20;;;;;;5105524;29;20079;-36
2022/04/05 11:07:52;;;;;;;;;;;14.90;68.20;;;;;;5089656;29;19923;-37
2022/04/05 11:10:30;;;;;;;;;;;14.90;68.40;;;;;;5180494;28;19965;-36
2022/04/05 11:13:04;;;;;;;;;;;14.90;68.10;;;;;;5187834;28;20306;-37
2022/04/05 11:15:41;;;;;;;;;;;14.90;67.80;;;;;;5170240;28;20114;-37
2022/04/05 11:18:12;;;;;;;;;;;14.80;67.60;;;;;;5187642;28;19921;-37
2022/04/05 11:20:45;;;;;;;;;;;14.90;67.90;;;;;;5187745;28;20362;-37
2022/04/05 11:23:18;;;;;;;;;;;14.80;68.20;;;;;;5187958;28;19956;-36
2022/04/05 11:25:49;;;;;;;;;;;14.90;68.10;;;;;;5187561;28;19975;-36
2022/04/05 11:28:21;;;;;;;;;;;14.90;67.70;;;;;;5187645;28;19925;-37
2022/04/05 11:30:55;;;;;;;;;;;14.90;67.40;;;;;;5187936;28;19921;-37
2022/04/05 11:33:29;;;;;;;;;;;14.80;67.50;;;;;;5187281;28;19929;-37
2022/04/05 11:36:09;;;;;;;;;;;14.80;67.20;;;;;;5187597;28;19921;-37
2022/04/05 11:38:41;;;;;;;;;;;14.70;66.10;;;;;;5187336;28;19921;-37
2022/04/05 11:41:19;;;;;;;;;;;14.80;66.20;;;;;;5169482;28;20330;-37
2022/04/05 11:44:07;;;;;;;;;;;14.80;66.80;;;;;;5187373;28;20389;-36
2022/04/05 11:46:38;;;;;;;;;;;14.80;66.60;;;;;;5144662;28;19922;-36
2022/04/05 11:49:14;;;;;;;;;;;14.80;67.20;;;;;;5128740;28;19922;-38
2022/04/05 11:51:48;;;;;;;;;;;14.90;67.40;;;;;;5144915;28;19957;-36
2022/04/05 11:54:21;;;;;;;;;;;14.80;67.40;;;;;;5144397;28;19922;-37
2022/04/05 11:56:54;;;;;;;;;;;14.90;67.20;;;;;;5144615;28;19925;-37
2022/04/05 11:59:25;;;;;;;;;;;15.00;67.10;;;;;;5144828;28;19933;-37
2022/04/05 12:01:58;;;;;;;;;;;15.00;67.10;;;;;;5145129;28;19957;-37
2022/04/05 12:04:30;;;;;;;;;;;15.00;67.10;;;;;;5112863;28;20280;-38
2022/04/05 12:07:03;;;;;;;;;;;15.00;67.50;;;;;;5144598;28;19968;-36
2022/04/05 12:09:35;;;;;;;;;;;14.90;67.60;;;;;;5144567;28;20331;-36
2022/04/05 12:12:08;;;;;;;;;;;14.80;66.90;;;;;;5144583;28;20277;-37
2022/04/05 12:14:39;;;;;;;;;;;14.80;65.50;;;;;;5128644;28;19969;-37
2022/04/05 12:17:10;;;;;;;;;;;14.80;65.00;;;;;;5160300;28;19921;-37
2022/04/05 12:19:45;;;;;;;;;;;14.90;65.00;;;;;;5187135;28;20287;-37
2022/04/05 12:22:18;;;;;;;;;;;15.00;65.20;;;;;;5187000;28;20394;-38
2022/04/05 12:24:54;;;;;;;;;;;15.10;65.40;;;;;;5187086;28;19922;-39
2022/04/05 12:27:27;;;;;;;;;;;15.20;65.50;;;;;;5187024;28;19932;-38
2022/04/05 12:29:59;;;;;;;;;;;15.20;66.00;;;;;;5185791;28;19959;-40
2022/04/05 12:32:34;;;;;;;;;;;15.20;66.60;;;;;;5186926;28;19921;-40
2022/04/05 12:35:05;;;;;;;;;;;15.30;66.80;;;;;;5187187;28;19943;-38
2022/04/05 12:37:36;;;;;;;;;;;15.30;66.70;;;;;;5186739;28;20258;-38
2022/04/05 12:40:21;;;;;;;;;;;15.20;66.80;;;;;;5169285;28;19956;-40
2022/04/05 12:42:52;;;;;;;;;;;15.30;66.80;;;;;;5170051;28;20275;-38
2022/04/05 12:45:30;;;;;;;;;;;15.40;66.80;;;;;;5187044;28;19921;-37
2022/04/05 12:48:11;;;;;;;;;;;15.50;66.80;;;;;;5186681;28;20314;-37
2022/04/05 12:50:43;;;;;;;;;;;15.50;66.70;;;;;;5186420;28;19921;-36
2022/04/05 12:53:21;;;;;;;;;;;15.40;66.70;;;;;;5188573;28;19922;-36
2022/04/05 12:55:56;;;;;;;;;;;15.40;66.90;;;;;;5190482;28;20381;-39
2022/04/05 12:58:36;;;;;;;;;;;15.40;67.00;;;;;;5190294;28;19921;-37
2022/04/05 13:01:14;;;;;;;;;;;15.50;67.00;;;;;;5190370;28;19933;-38
2022/04/05 13:03:45;;;;;;;;;;;15.50;66.60;;;;;;5190262;28;19948;-39
2022/04/05 13:06:26;;;;;;;;;;;15.60;66.40;;;;;;5155430;28;19925;-37
2022/04/05 13:09:10;;;;;;;;;;;15.70;66.10;;;;;;5169144;28;19921;-37
2022/04/05 13:11:41;;;;;;;;;;;15.70;66.00;;;;;;5168938;28;20009;-36
2022/04/05 13:14:14;;;;;;;;;;;15.70;66.30;;;;;;5169358;28;19921;-38
2022/04/05 13:16:47;;;;;;;;;;;15.70;66.50;;;;;;5172992;28;19957;-37
2022/04/05 13:19:18;;;;;;;;;;;15.80;66.90;;;;;;5172427;28;19921;-37
2022/04/05 13:21:50;;;;;;;;;;;15.80;67.30;;;;;;5189567;28;19975;-37
2022/04/05 13:24:22;;;;;;;;;;;15.70;68.30;;;;;;5189558;28;19921;-37
2022/04/05 13:26:53;;;;;;;;;;;15.80;68.60;;;;;;5187778;28;19925;-37
2022/04/05 13:29:26;;;;;;;;;;;15.80;68.80;;;;;;5189324;28;19921;-37
2022/04/05 13:32:06;;;;;;;;;;;15.80;68.90;;;;;;5189513;28;20004;-36
2022/04/05 13:34:37;;;;;;;;;;;15.80;68.30;;;;;;5188651;28;19921;-38
2022/04/05 13:37:08;;;;;;;;;;;15.70;67.50;;;;;;5188441;28;19991;-36
2022/04/05 13:39:39;;;;;;;;;;;15.80;67.10;;;;;;5188585;28;19976;-37
2022/04/05 13:42:13;;;;;;;;;;;15.80;66.60;;;;;;5188280;28;19925;-37
2022/04/05 13:44:44;;;;;;;;;;;15.70;65.40;;;;;;5189170;28;20326;-36
2022/04/05 13:47:15;;;;;;;;;;;15.60;65.50;;;;;;5188829;28;19925;-36
2022/04/05 13:49:46;;;;;;;;;;;15.50;66.50;;;;;;5188885;28;19921;-37
2022/04/05 13:52:18;;;;;;;;;;;15.40;66.80;;;;;;5189039;28;19921;-36
2022/04/05 13:54:49;;;;;;;;;;;15.40;66.00;;;;;;5188989;28;20001;-36
2022/04/05 13:57:22;;;;;;;;;;;15.30;65.80;;;;;;5189026;28;20374;-37
2022/04/05 13:59:53;;;;;;;;;;;15.30;65.20;;;;;;5189272;28;20012;-36
2022/04/05 14:02:27;;;;;;;;;;;15.30;63.80;;;;;;5189078;28;20012;-37
2022/04/05 14:05:02;;;;;;;;;;;15.30;63.30;;;;;;5164386;28;20452;-37
2022/04/05 14:07:34;;;;;;;;;;;15.30;63.40;;;;;;5186706;28;20428;-36
2022/04/05 14:10:06;;;;;;;;;;;15.30;63.00;;;;;;5186550;28;19960;-37
2022/04/05 14:12:36;;;;;;;;;;;15.30;62.30;;;;;;5169004;28;19921;-36
2022/04/05 14:15:10;;;;;;;;;;;15.30;62.00;;;;;;5186775;28;19925;-36
2022/04/05 14:17:41;;;;;;;;;;;15.30;61.80;;;;;;5186463;28;19926;-37
2022/04/05 14:20:12;;;;;;;;;;;15.30;61.90;;;;;;5186526;28;20363;-37
2022/04/05 14:22:43;;;;;;;;;;;15.40;61.80;;;;;;5186430;28;19928;-39
2022/04/05 14:25:18;;;;;;;;;;;15.40;61.60;;;;;;5186094;28;19932;-39
2022/04/05 14:27:49;;;;;;;;;;;15.60;61.30;;;;;;5186368;28;20751;-37
2022/04/05 14:30:24;;;;;;;;;;;15.70;61.10;;;;;;5186415;28;20024;-38
2022/04/05 14:32:55;;;;;;;;;;;15.80;60.50;;;;;;5186179;28;20298;-37
2022/04/05 14:35:26;;;;;;;;;;;15.90;60.20;;;;;;5186142;28;19925;-37
2022/04/05 14:37:57;;;;;;;;;;;15.70;60.30;;;;;;5185357;28;20011;-38
2022/04/05 14:40:30;;;;;;;;;;;15.60;60.30;;;;;;5185894;28;19921;-37
2022/04/05 14:43:01;;;;;;;;;;;15.70;60.10;;;;;;5184759;28;20393;-38
2022/04/05 14:45:32;;;;;;;;;;;15.70;59.50;;;;;;5185859;28;20367;-37